Time;durP1;ratioP1;P1;durP2;ratioP2;P2;SDS_P1;SDS_P2;PMS_P1;PMS_P2;Temp;Humidity;BMP_temperature;BMP_pressure;BME280_temperature;BME280_humidity;BME280_pressure;Samples;Min_cycle;Max_cycle;Signal;HPM_P1;HPM_P2
2022/07/21 00:00:07;;;;;;;15.20;8.73;;;23.00;99.90;;;;;;2084964;28;20053;-69
2022/07/21 00:01:08;;;;;;;9.50;8.65;;;23.10;99.90;;;;;;2086641;28;20063;-69
2022/07/21 00:02:08;;;;;;;9.65;8.70;;;23.10;99.90;;;;;;2088014;28;20094;-69
2022/07/21 00:03:09;;;;;;;10.73;9.63;;;23.00;99.90;;;;;;2088396;28;20047;-69
2022/07/21 00:04:10;;;;;;;10.48;9.55;;;23.10;99.90;;;;;;2087225;28;20037;-69
2022/07/21 00:05:10;;;;;;;12.38;10.48;;;23.10;99.90;;;;;;2087549;28;20511;-69
2022/07/21 00:06:11;;;;;;;9.75;8.73;;;23.10;99.90;;;;;;2088390;28;20373;-69
2022/07/21 00:07:12;;;;;;;10.75;9.63;;;23.00;99.90;;;;;;2083019;28;20025;-69
2022/07/21 00:08:13;;;;;;;9.95;8.65;;;23.00;99.90;;;;;;2086613;28;20032;-69
2022/07/21 00:09:15;;;;;;;9.75;8.70;;;23.10;99.90;;;;;;2085862;28;20033;-69
2022/07/21 00:10:16;;;;;;;12.38;10.70;;;23.00;99.90;;;;;;2083547;28;20017;-69
2022/07/21 00:11:17;;;;;;;11.20;9.70;;;23.00;99.90;;;;;;2085205;28;20020;-69
2022/07/21 00:12:17;;;;;;;9.88;8.52;;;23.10;99.90;;;;;;2086801;28;20017;-69
2022/07/21 00:13:18;;;;;;;11.35;10.18;;;23.00;99.90;;;;;;2083951;28;20036;-69
2022/07/21 00:14:21;;;;;;;9.90;8.93;;;23.00;99.90;;;;;;2086414;28;20051;-69
2022/07/21 00:15:25;;;;;;;13.57;9.68;;;23.00;99.90;;;;;;2084425;28;20068;-69
2022/07/21 00:16:26;;;;;;;12.98;9.63;;;23.00;99.90;;;;;;2085566;28;20362;-69
2022/07/21 00:17:27;;;;;;;11.27;10.07;;;23.00;99.90;;;;;;2087002;28;20077;-69
2022/07/21 00:18:30;;;;;;;16.60;9.80;;;23.00;99.90;;;;;;2086764;28;20064;-69
2022/07/21 00:19:31;;;;;;;11.27;10.07;;;23.00;99.90;;;;;;2086701;28;20476;-69
2022/07/21 00:20:32;;;;;;;12.57;10.13;;;23.00;99.90;;;;;;2085526;28;20373;-69
2022/07/21 00:21:34;;;;;;;8.55;7.70;;;23.00;99.90;;;;;;2086390;28;20083;-69
2022/07/21 00:22:35;;;;;;;9.68;8.77;;;23.00;99.90;;;;;;2086438;28;20032;-69
2022/07/21 00:23:35;;;;;;;9.20;8.35;;;23.00;99.90;;;;;;2087119;28;20087;-69
2022/07/21 00:24:36;;;;;;;10.93;9.80;;;23.00;99.90;;;;;;2083909;28;20479;-69
2022/07/21 00:25:36;;;;;;;10.45;9.45;;;23.00;99.90;;;;;;2084864;28;20104;-69
2022/07/21 00:26:37;;;;;;;10.27;9.30;;;23.00;99.90;;;;;;2089043;28;20029;-69
2022/07/21 00:27:38;;;;;;;10.07;9.05;;;23.00;99.90;;;;;;2086520;28;20029;-69
2022/07/21 00:28:39;;;;;;;9.65;8.75;;;22.90;99.90;;;;;;2085195;28;20055;-69
2022/07/21 00:29:39;;;;;;;10.73;9.30;;;23.00;99.90;;;;;;2085791;28;20025;-69
2022/07/21 00:30:40;;;;;;;11.50;9.65;;;22.90;99.90;;;;;;2083554;28;20021;-69
2022/07/21 00:31:41;;;;;;;9.27;8.38;;;23.00;99.90;;;;;;2085337;28;20048;-69
2022/07/21 00:32:42;;;;;;;10.63;8.45;;;22.90;99.90;;;;;;2083383;28;20516;-69
2022/07/21 00:33:43;;;;;;;10.05;9.05;;;22.90;99.90;;;;;;2085268;28;20017;-69
2022/07/21 00:34:44;;;;;;;9.70;8.57;;;22.90;99.90;;;;;;2083407;28;20025;-69
2022/07/21 00:35:44;;;;;;;9.60;8.38;;;22.90;99.90;;;;;;2086701;28;20497;-69
2022/07/21 00:36:45;;;;;;;10.82;9.38;;;22.90;99.90;;;;;;2086088;28;20028;-69
2022/07/21 00:37:45;;;;;;;10.80;9.70;;;22.90;99.90;;;;;;2085745;28;20052;-69
2022/07/21 00:38:46;;;;;;;11.45;9.50;;;22.90;99.90;;;;;;2084825;28;20013;-69
2022/07/21 00:39:47;;;;;;;10.82;8.70;;;22.80;99.90;;;;;;2085867;28;20032;-69
2022/07/21 00:40:48;;;;;;;9.80;8.88;;;22.80;99.90;;;;;;2085999;28;20100;-69
2022/07/21 00:41:48;;;;;;;10.85;9.18;;;22.80;99.90;;;;;;2082662;28;20103;-69
2022/07/21 00:42:49;;;;;;;9.23;8.23;;;22.80;99.90;;;;;;2083156;28;20030;-69
2022/07/21 00:43:50;;;;;;;12.25;10.25;;;22.80;99.90;;;;;;2085531;28;20040;-69
2022/07/21 00:44:50;;;;;;;11.93;10.07;;;22.80;99.90;;;;;;2086545;28;20025;-69
2022/07/21 00:45:55;;;;;;;10.38;9.32;;;22.80;99.90;;;;;;2085020;28;20028;-69
2022/07/21 00:46:57;;;;;;;9.55;8.70;;;22.80;99.90;;;;;;2083713;28;20037;-69
2022/07/21 00:47:58;;;;;;;11.25;10.23;;;22.80;99.90;;;;;;2085827;28;20025;-69
2022/07/21 00:48:58;;;;;;;10.80;9.80;;;22.70;99.90;;;;;;2085402;28;20488;-69
2022/07/21 00:50:03;;;;;;;12.38;11.15;;;22.70;99.90;;;;;;2083507;28;20108;-69
2022/07/21 00:51:03;;;;;;;12.88;11.68;;;22.70;99.90;;;;;;2085042;28;20025;-69
2022/07/21 00:52:04;;;;;;;12.15;11.05;;;22.70;99.90;;;;;;2086685;28;20013;-69
2022/07/21 00:53:05;;;;;;;10.75;9.65;;;22.70;99.90;;;;;;2085289;28;20018;-69
2022/07/21 00:54:05;;;;;;;11.13;9.85;;;22.60;99.90;;;;;;2084227;28;20017;-69
2022/07/21 00:55:09;;;;;;;9.77;8.90;;;22.70;99.90;;;;;;2086862;28;20687;-69
2022/07/21 00:56:11;;;;;;;12.10;10.90;;;22.60;99.90;;;;;;2083403;28;20715;-69
2022/07/21 00:57:13;;;;;;;9.77;8.85;;;22.60;99.90;;;;;;2085521;28;20391;-69
2022/07/21 00:58:14;;;;;;;9.40;8.57;;;22.60;99.90;;;;;;2082492;28;20020;-69
2022/07/21 00:59:15;;;;;;;13.13;11.80;;;22.60;99.90;;;;;;2085426;28;20021;-69
2022/07/21 01:00:27;;;;;;;12.15;10.88;;;22.70;99.90;;;;;;2085510;28;20505;-69
2022/07/21 01:01:28;;;;;;;13.57;12.27;;;22.60;99.90;;;;;;2082436;28;20216;-69
2022/07/21 01:02:31;;;;;;;11.15;10.02;;;22.60;99.90;;;;;;2084000;28;20036;-69
2022/07/21 01:03:32;;;;;;;10.75;9.75;;;22.70;99.90;;;;;;2084686;28;20633;-69
2022/07/21 01:04:33;;;;;;;13.18;11.43;;;22.60;99.90;;;;;;2083001;28;20452;-69
2022/07/21 01:05:34;;;;;;;12.95;11.63;;;22.60;99.90;;;;;;2080746;28;20516;-69
2022/07/21 01:06:34;;;;;;;10.80;9.80;;;22.60;99.90;;;;;;2085390;28;20103;-69
2022/07/21 01:07:35;;;;;;;11.85;10.63;;;22.60;99.90;;;;;;2085967;28;20017;-69
2022/07/21 01:08:36;;;;;;;12.13;11.10;;;22.60;99.90;;;;;;2083530;28;20032;-69
2022/07/21 01:09:37;;;;;;;11.50;10.35;;;22.60;99.90;;;;;;2085635;28;20087;-69
2022/07/21 01:10:39;;;;;;;13.32;10.93;;;22.60;99.90;;;;;;2086628;28;20025;-69
2022/07/21 01:11:40;;;;;;;11.52;10.35;;;22.60;99.90;;;;;;2084072;28;20027;-69
2022/07/21 01:12:41;;;;;;;10.73;9.73;;;22.70;99.90;;;;;;2085697;28;20031;-69
2022/07/21 01:13:43;;;;;;;10.38;8.98;;;22.60;99.90;;;;;;2087152;28;20029;-69
2022/07/21 01:14:44;;;;;;;11.70;10.50;;;22.60;99.90;;;;;;2087694;28;20048;-69
2022/07/21 01:15:45;;;;;;;10.82;9.82;;;22.60;99.90;;;;;;2085181;28;20029;-69
2022/07/21 01:16:45;;;;;;;11.68;10.57;;;22.60;99.90;;;;;;2086320;28;20040;-69
2022/07/21 01:17:46;;;;;;;10.25;9.32;;;22.60;99.90;;;;;;2082715;28;20436;-69
2022/07/21 01:18:47;;;;;;;10.68;9.57;;;22.60;99.90;;;;;;2084339;28;20095;-69
2022/07/21 01:19:48;;;;;;;8.85;7.97;;;22.60;99.90;;;;;;2081940;28;20021;-69
2022/07/21 01:20:53;;;;;;;9.65;8.68;;;22.60;99.90;;;;;;2082567;28;20184;-69
2022/07/21 01:21:53;;;;;;;9.48;8.40;;;22.60;99.90;;;;;;2087972;28;20056;-69
2022/07/21 01:22:58;;;;;;;10.50;9.50;;;22.60;99.90;;;;;;2089455;28;20021;-69
2022/07/21 01:23:59;;;;;;;9.10;8.25;;;22.60;99.90;;;;;;2086507;28;20385;-69
2022/07/21 01:25:00;;;;;;;8.73;7.93;;;22.50;99.90;;;;;;2088393;28;20508;-69
2022/07/21 01:26:01;;;;;;;8.88;8.07;;;22.60;99.90;;;;;;2083993;28;20084;-69
2022/07/21 01:27:02;;;;;;;9.35;8.35;;;22.60;99.90;;;;;;2088399;28;20051;-69
2022/07/21 01:28:03;;;;;;;8.70;7.90;;;22.50;99.90;;;;;;2085761;28;20142;-69
2022/07/21 01:29:03;;;;;;;8.60;7.70;;;22.50;99.90;;;;;;2086571;28;20028;-69
2022/07/21 01:30:07;;;;;;;9.35;8.45;;;22.50;99.90;;;;;;2086706;28;20024;-69
2022/07/21 01:31:08;;;;;;;9.55;8.52;;;22.50;99.90;;;;;;2089005;28;20420;-69
2022/07/21 01:32:08;;;;;;;10.95;9.00;;;22.50;99.90;;;;;;2087749;28;20021;-69
2022/07/21 01:33:09;;;;;;;8.90;7.90;;;22.50;99.90;;;;;;2085671;28;20490;-69
2022/07/21 01:34:11;;;;;;;10.55;8.88;;;22.50;99.90;;;;;;2085793;28;20433;-69
2022/07/21 01:35:15;;;;;;;9.38;8.25;;;22.50;99.90;;;;;;2085521;28;20066;-69
2022/07/21 01:36:16;;;;;;;8.88;8.00;;;22.50;99.90;;;;;;2087245;28;20146;-69
2022/07/21 01:37:27;;;;;;;7.97;7.35;;;22.50;99.90;;;;;;2083685;28;20027;-69
2022/07/21 01:42:26;;;;;;;9.32;8.07;;;22.40;99.90;;;;;;2086921;28;20037;-69
2022/07/21 01:43:27;;;;;;;9.52;8.63;;;22.40;99.90;;;;;;2085939;28;20413;-69
2022/07/21 01:44:28;;;;;;;8.57;7.55;;;22.40;99.90;;;;;;2086463;28;20491;-69
2022/07/21 01:45:28;;;;;;;8.18;7.40;;;22.40;99.90;;;;;;2084001;28;20025;-69
2022/07/21 01:46:31;;;;;;;9.02;8.13;;;22.40;99.90;;;;;;2085060;28;20497;-69
2022/07/21 01:47:32;;;;;;;10.77;8.85;;;22.40;99.90;;;;;;2086093;28;20021;-69
2022/07/21 01:48:33;;;;;;;8.80;7.47;;;22.40;99.90;;;;;;2085860;28;20520;-69
2022/07/21 01:49:33;;;;;;;9.73;8.88;;;22.40;99.90;;;;;;2085041;28;20158;-69
2022/07/21 01:50:34;;;;;;;9.95;8.77;;;22.40;99.90;;;;;;2082647;28;20017;-69
2022/07/21 01:51:35;;;;;;;8.70;7.93;;;22.50;99.90;;;;;;2085441;28;20060;-69
2022/07/21 01:52:35;;;;;;;10.02;8.57;;;22.40;99.90;;;;;;2084246;28;20026;-69
2022/07/21 01:53:36;;;;;;;9.38;8.48;;;22.40;99.90;;;;;;2085455;28;20017;-69
2022/07/21 01:54:37;;;;;;;9.18;8.27;;;22.40;99.90;;;;;;2084609;28;20027;-69
2022/07/21 01:55:37;;;;;;;9.07;8.18;;;22.40;99.90;;;;;;2086676;28;20028;-69
2022/07/21 01:56:39;;;;;;;9.13;8.27;;;22.40;99.90;;;;;;2085198;28;20018;-69
2022/07/21 01:57:40;;;;;;;9.25;8.45;;;22.40;99.90;;;;;;2083549;28;20029;-69
2022/07/21 01:58:41;;;;;;;16.45;9.15;;;22.40;99.90;;;;;;2084301;28;20484;-69
2022/07/21 01:59:42;;;;;;;9.90;8.90;;;22.40;99.90;;;;;;2081800;28;20036;-69
2022/07/21 02:00:43;;;;;;;9.65;8.65;;;22.40;99.90;;;;;;2086798;28;20029;-69
2022/07/21 02:01:43;;;;;;;10.48;9.57;;;22.40;99.90;;;;;;2086324;28;20108;-69
2022/07/21 02:02:44;;;;;;;10.07;9.10;;;22.40;99.90;;;;;;2085688;28;20496;-69
2022/07/21 02:03:45;;;;;;;10.75;9.63;;;22.40;99.90;;;;;;2085449;28;20034;-69
2022/07/21 02:04:47;;;;;;;9.15;8.25;;;22.40;99.90;;;;;;2084714;28;20025;-69
2022/07/21 02:05:48;;;;;;;10.52;9.52;;;22.40;99.90;;;;;;2083182;28;20032;-69
2022/07/21 02:06:49;;;;;;;10.52;9.48;;;22.40;99.90;;;;;;2083718;28;20030;-69
2022/07/21 02:07:49;;;;;;;10.43;9.43;;;22.30;99.90;;;;;;2084178;28;20481;-69
2022/07/21 02:08:50;;;;;;;9.68;8.77;;;22.30;99.90;;;;;;2082949;28;20105;-69
2022/07/21 02:09:50;;;;;;;10.82;9.05;;;22.30;99.90;;;;;;2084166;28;20515;-69
2022/07/21 02:10:51;;;;;;;10.32;9.25;;;22.30;99.90;;;;;;2086040;28;20056;-69
2022/07/21 02:11:52;;;;;;;11.02;9.43;;;22.30;99.90;;;;;;2085144;28;20025;-69
2022/07/21 02:12:52;;;;;;;12.05;10.45;;;22.30;99.90;;;;;;2085584;28;20081;-69
2022/07/21 02:13:53;;;;;;;11.73;10.45;;;22.30;99.90;;;;;;2082464;28;20021;-68
2022/07/21 02:14:54;;;;;;;11.32;10.23;;;22.30;99.90;;;;;;2083868;28;20465;-69
2022/07/21 02:15:55;;;;;;;12.90;10.38;;;22.30;99.90;;;;;;2084171;28;20021;-69
2022/07/21 02:16:55;;;;;;;10.73;9.63;;;22.30;99.90;;;;;;2083161;28;20071;-69
2022/07/21 02:17:57;;;;;;;10.73;9.73;;;22.20;99.90;;;;;;2084986;28;20093;-69
2022/07/21 02:18:58;;;;;;;13.20;10.45;;;22.20;99.90;;;;;;2084695;28;20013;-69
2022/07/21 02:19:58;;;;;;;11.02;9.93;;;22.20;99.90;;;;;;2085833;28;20105;-69
2022/07/21 02:20:59;;;;;;;11.32;10.23;;;22.20;99.90;;;;;;2082623;28;20452;-69
2022/07/21 02:21:59;;;;;;;10.95;9.95;;;22.20;99.90;;;;;;2084662;28;20412;-69
2022/07/21 02:23:00;;;;;;;10.63;9.52;;;22.20;99.90;;;;;;2083762;28;20252;-69
2022/07/21 02:24:01;;;;;;;11.07;9.40;;;22.10;99.90;;;;;;2084940;28;20634;-69
2022/07/21 02:25:01;;;;;;;11.65;9.75;;;22.10;99.90;;;;;;2084270;28;20028;-69
2022/07/21 02:26:02;;;;;;;12.15;9.75;;;22.10;99.90;;;;;;2083585;28;20456;-69
2022/07/21 02:27:03;;;;;;;13.55;9.90;;;22.10;99.90;;;;;;2084559;28;20420;-69
2022/07/21 02:28:04;;;;;;;11.07;9.73;;;22.10;99.90;;;;;;2085084;28;20022;-69
2022/07/21 02:29:04;;;;;;;11.95;9.25;;;22.10;99.90;;;;;;2085464;28;20017;-68
2022/07/21 02:30:05;;;;;;;9.55;8.68;;;22.10;99.90;;;;;;2085439;28;20120;-69
2022/07/21 02:31:06;;;;;;;11.85;9.38;;;22.00;99.90;;;;;;2084295;28;20100;-68
2022/07/21 02:32:07;;;;;;;11.30;8.57;;;22.00;99.90;;;;;;2085696;28;20025;-68
2022/07/21 02:33:08;;;;;;;9.85;8.95;;;22.00;99.90;;;;;;2087040;28;20021;-69
2022/07/21 02:34:08;;;;;;;9.77;8.77;;;22.00;99.90;;;;;;2084123;28;20033;-69
2022/07/21 02:35:10;;;;;;;8.98;8.07;;;22.00;99.90;;;;;;2083031;28;20400;-69
2022/07/21 02:36:11;;;;;;;9.30;8.15;;;21.90;99.90;;;;;;2084242;28;20488;-69
2022/07/21 02:37:11;;;;;;;10.52;8.40;;;22.00;99.90;;;;;;2082889;28;20465;-69
2022/07/21 02:38:12;;;;;;;9.23;8.27;;;21.90;99.90;;;;;;2084894;28;20028;-69
2022/07/21 02:39:13;;;;;;;8.98;8.07;;;21.90;99.90;;;;;;2082852;28;20582;-69
2022/07/21 02:40:14;;;;;;;8.77;7.88;;;21.90;99.90;;;;;;2082879;28;20035;-69
2022/07/21 02:41:14;;;;;;;8.75;7.65;;;21.90;99.90;;;;;;2083922;28;20102;-69
2022/07/21 02:42:15;;;;;;;10.60;8.00;;;21.90;99.90;;;;;;2085677;28;20025;-69
2022/07/21 02:43:16;;;;;;;9.32;8.00;;;21.90;99.90;;;;;;2084810;28;20048;-69
2022/07/21 02:44:16;;;;;;;9.48;8.13;;;21.90;99.90;;;;;;2084972;28;20028;-69
2022/07/21 02:45:17;;;;;;;9.00;8.02;;;21.90;99.90;;;;;;2081477;28;20104;-69
2022/07/21 02:46:17;;;;;;;8.95;6.90;;;21.90;99.90;;;;;;2084477;28;20366;-69
2022/07/21 02:47:18;;;;;;;9.02;7.18;;;21.90;99.90;;;;;;2085305;28;20021;-69
2022/07/21 02:48:19;;;;;;;8.32;7.03;;;21.90;99.90;;;;;;2086505;28;20025;-69
2022/07/21 02:49:20;;;;;;;8.68;7.88;;;21.90;99.90;;;;;;2083646;28;20112;-69
2022/07/21 02:50:22;;;;;;;7.35;6.63;;;21.90;99.90;;;;;;2081968;28;20075;-69
2022/07/21 02:51:23;;;;;;;8.07;7.28;;;21.90;99.90;;;;;;2084540;28;20013;-69
2022/07/21 02:52:23;;;;;;;8.23;7.20;;;21.90;99.90;;;;;;2083284;28;20013;-69
2022/07/21 02:53:24;;;;;;;9.68;7.47;;;21.90;99.90;;;;;;2086503;28;20498;-69
2022/07/21 02:54:24;;;;;;;8.10;6.95;;;21.90;99.90;;;;;;2086682;28;20508;-69
2022/07/21 02:55:26;;;;;;;7.32;6.63;;;21.90;99.90;;;;;;2085258;28;20431;-69
2022/07/21 02:56:26;;;;;;;10.02;7.50;;;21.90;99.90;;;;;;2082794;28;20354;-69
2022/07/21 02:57:27;;;;;;;7.43;6.72;;;21.90;99.90;;;;;;2085636;28;20047;-69
2022/07/21 02:58:29;;;;;;;7.50;6.72;;;21.90;99.90;;;;;;2086524;28;20544;-68
2022/07/21 02:59:29;;;;;;;8.63;6.57;;;21.90;99.90;;;;;;2086036;28;20036;-68
2022/07/21 03:00:30;;;;;;;6.50;5.78;;;21.90;99.90;;;;;;2085898;28;20583;-69
2022/07/21 03:01:31;;;;;;;6.38;5.78;;;21.80;99.90;;;;;;2082831;28;20095;-69
2022/07/21 03:02:31;;;;;;;6.88;6.18;;;21.80;99.90;;;;;;2084916;28;20021;-69
2022/07/21 03:03:35;;;;;;;7.93;6.35;;;21.80;99.90;;;;;;2088940;28;20109;-69
2022/07/21 03:04:36;;;;;;;11.32;6.45;;;21.80;99.90;;;;;;2089645;28;20116;-69
2022/07/21 03:05:38;;;;;;;8.27;6.50;;;21.80;99.90;;;;;;2088734;28;20485;-69
2022/07/21 03:06:39;;;;;;;7.55;5.50;;;21.80;99.90;;;;;;2089970;28;20021;-69
2022/07/21 03:07:40;;;;;;;6.03;5.43;;;21.80;99.90;;;;;;2085196;28;20108;-69
2022/07/21 03:08:40;;;;;;;7.53;6.00;;;21.80;99.90;;;;;;2085871;28;20021;-69
2022/07/21 03:09:41;;;;;;;6.68;6.03;;;21.80;99.90;;;;;;2084846;28;20013;-69
2022/07/21 03:10:42;;;;;;;6.25;5.65;;;21.80;99.90;;;;;;2082978;28;20021;-69
2022/07/21 03:11:43;;;;;;;7.28;6.18;;;21.70;99.90;;;;;;2087589;28;20127;-69
2022/07/21 03:12:43;;;;;;;6.80;5.97;;;21.70;99.90;;;;;;2086373;28;20028;-69
2022/07/21 03:13:44;;;;;;;7.20;5.82;;;21.80;99.90;;;;;;2086838;28;20361;-69
2022/07/21 03:14:45;;;;;;;8.82;6.13;;;21.70;99.90;;;;;;2087093;28;20072;-69
2022/07/21 03:15:45;;;;;;;7.03;6.32;;;21.70;99.90;;;;;;2085915;28;20032;-69
2022/07/21 03:16:46;;;;;;;6.50;5.85;;;21.70;99.90;;;;;;2088588;28;20017;-69
2022/07/21 03:17:46;;;;;;;6.75;6.05;;;21.70;99.90;;;;;;2084499;28;20032;-69
2022/07/21 03:18:47;;;;;;;7.93;6.13;;;21.70;99.90;;;;;;2085243;28;20392;-69
2022/07/21 03:19:47;;;;;;;6.93;6.13;;;21.70;99.90;;;;;;2087880;28;20645;-69
2022/07/21 03:20:48;;;;;;;6.18;5.57;;;21.70;99.90;;;;;;2088371;28;20020;-69
2022/07/21 03:21:49;;;;;;;7.55;6.43;;;21.70;99.90;;;;;;2088158;28;20020;-69
2022/07/21 03:22:49;;;;;;;7.40;6.50;;;21.60;99.90;;;;;;2085535;28;20025;-68
2022/07/21 03:23:50;;;;;;;6.70;5.40;;;21.70;99.90;;;;;;2086822;28;20036;-69
2022/07/21 03:24:51;;;;;;;7.03;6.25;;;21.60;99.90;;;;;;2085261;28;20030;-69
2022/07/21 03:25:51;;;;;;;6.90;6.20;;;21.60;99.90;;;;;;2084943;28;20392;-69
2022/07/21 03:26:52;;;;;;;6.32;5.72;;;21.60;99.90;;;;;;2084801;28;20595;-69
2022/07/21 03:27:53;;;;;;;7.45;6.47;;;21.60;99.90;;;;;;2087308;28;20498;-69
2022/07/21 03:28:54;;;;;;;7.50;6.13;;;21.70;99.90;;;;;;2086875;28;20150;-69
2022/07/21 03:29:54;;;;;;;6.78;6.00;;;21.60;99.90;;;;;;2085363;28;20167;-69
2022/07/21 03:30:55;;;;;;;7.07;6.13;;;21.60;99.90;;;;;;2087384;28;20147;-69
2022/07/21 03:31:55;;;;;;;7.28;6.22;;;21.60;99.90;;;;;;2087836;28;20013;-69
2022/07/21 03:32:57;;;;;;;7.75;6.07;;;21.60;99.90;;;;;;2086353;28;20475;-69
2022/07/21 03:33:57;;;;;;;6.07;5.47;;;21.60;99.90;;;;;;2084783;28;20027;-69
2022/07/21 03:34:58;;;;;;;8.98;7.20;;;21.60;99.90;;;;;;2088862;28;20017;-69
2022/07/21 03:35:59;;;;;;;9.30;5.93;;;21.60;99.90;;;;;;2086375;28;20017;-69
2022/07/21 03:37:00;;;;;;;7.10;6.38;;;21.60;99.90;;;;;;2086781;28;20025;-69
2022/07/21 03:38:01;;;;;;;7.32;6.40;;;21.60;99.90;;;;;;2086185;28;20032;-69
2022/07/21 03:39:01;;;;;;;6.60;6.00;;;21.60;99.90;;;;;;2087108;28;20048;-69
2022/07/21 03:40:02;;;;;;;8.50;6.35;;;21.60;99.90;;;;;;2084535;28;20024;-69
2022/07/21 03:41:03;;;;;;;7.22;6.53;;;21.60;99.90;;;;;;2086267;28;20048;-69
2022/07/21 03:42:04;;;;;;;7.75;6.90;;;21.60;99.90;;;;;;2085724;28;20583;-69
2022/07/21 03:43:06;;;;;;;7.75;6.53;;;21.60;99.90;;;;;;2085878;28;20032;-69
2022/07/21 03:44:07;;;;;;;7.20;6.50;;;21.50;99.90;;;;;;2085576;28;20243;-68
2022/07/21 03:45:09;;;;;;;7.90;6.07;;;21.60;99.90;;;;;;2082883;28;20030;-68
2022/07/21 03:46:09;;;;;;;7.05;6.35;;;21.60;99.90;;;;;;2085454;28;20032;-68
2022/07/21 03:47:10;;;;;;;8.02;5.70;;;21.60;99.90;;;;;;2084629;28;20045;-68
2022/07/21 03:48:11;;;;;;;7.97;6.47;;;21.50;99.90;;;;;;2086325;28;20032;-68
2022/07/21 03:49:12;;;;;;;10.82;7.28;;;21.50;99.90;;;;;;2086926;28;20155;-68
2022/07/21 03:50:14;;;;;;;7.43;6.60;;;21.50;99.90;;;;;;2086639;28;20075;-68
2022/07/21 03:51:15;;;;;;;7.70;6.90;;;21.50;99.90;;;;;;2087675;28;20028;-68
2022/07/21 03:52:15;;;;;;;6.95;6.25;;;21.50;99.90;;;;;;2083392;28;20018;-69
2022/07/21 03:53:16;;;;;;;7.28;6.57;;;21.50;99.90;;;;;;2085595;28;20013;-69
2022/07/21 03:54:17;;;;;;;7.90;7.10;;;21.50;99.90;;;;;;2086594;28;20032;-69
2022/07/21 03:55:18;;;;;;;9.27;6.35;;;21.50;99.90;;;;;;2087581;28;20029;-69
2022/07/21 03:56:18;;;;;;;6.97;6.18;;;21.50;99.90;;;;;;2088104;28;20028;-69
2022/07/21 03:57:19;;;;;;;7.13;6.43;;;21.50;99.90;;;;;;2087168;28;20520;-69
2022/07/21 03:58:20;;;;;;;6.78;6.18;;;21.50;99.90;;;;;;2085276;28;20020;-69
2022/07/21 03:59:20;;;;;;;7.32;6.63;;;21.50;99.90;;;;;;2085647;28;20451;-70
2022/07/21 04:00:24;;;;;;;8.05;7.30;;;21.50;99.90;;;;;;2084853;28;20110;-69
2022/07/21 04:01:25;;;;;;;7.57;6.85;;;21.50;99.90;;;;;;2083851;28;20104;-69
2022/07/21 04:02:25;;;;;;;7.60;6.93;;;21.50;99.90;;;;;;2085969;28;20075;-69
2022/07/21 04:03:26;;;;;;;7.50;6.80;;;21.50;99.90;;;;;;2086772;28;20445;-69
2022/07/21 04:04:26;;;;;;;6.97;6.38;;;21.50;99.90;;;;;;2085572;28;20703;-69
2022/07/21 04:05:28;;;;;;;8.00;7.18;;;21.50;99.90;;;;;;2085101;28;21050;-69
2022/07/21 04:06:28;;;;;;;7.72;7.03;;;21.50;99.90;;;;;;2083727;28;20033;-69
2022/07/21 04:07:29;;;;;;;8.27;7.10;;;21.50;99.90;;;;;;2088878;28;20488;-69
2022/07/21 04:08:30;;;;;;;8.80;6.93;;;21.40;99.90;;;;;;2083841;28;20100;-69
2022/07/21 04:09:31;;;;;;;7.65;7.00;;;21.50;99.90;;;;;;2087200;28;20495;-69
2022/07/21 04:10:34;;;;;;;8.50;7.60;;;21.50;99.90;;;;;;2086833;28;20445;-69
2022/07/21 04:11:34;;;;;;;8.30;7.50;;;21.50;99.90;;;;;;2086903;28;20036;-69
2022/07/21 04:12:35;;;;;;;7.63;6.95;;;21.50;99.90;;;;;;2085527;28;20014;-69
2022/07/21 04:13:36;;;;;;;9.00;8.18;;;21.50;99.90;;;;;;2084909;28;20025;-69
2022/07/21 04:14:37;;;;;;;7.65;6.97;;;21.50;99.90;;;;;;2083793;28;20078;-69
2022/07/21 04:15:39;;;;;;;8.65;7.63;;;21.50;99.90;;;;;;2084114;28;20555;-69
2022/07/21 04:16:40;;;;;;;7.95;7.25;;;21.50;99.90;;;;;;2085822;28;20025;-69
2022/07/21 04:17:41;;;;;;;7.43;6.80;;;21.50;99.90;;;;;;2084804;28;20021;-69
2022/07/21 04:18:41;;;;;;;8.90;7.28;;;21.50;99.90;;;;;;2085527;28;20048;-69
2022/07/21 04:19:42;;;;;;;7.57;6.78;;;21.50;99.90;;;;;;2083127;28;20025;-69
2022/07/21 04:20:43;;;;;;;8.52;6.88;;;21.40;99.90;;;;;;2086003;28;20954;-69
2022/07/21 04:21:44;;;;;;;8.48;7.63;;;21.40;99.90;;;;;;2087125;28;20087;-69
2022/07/21 04:22:46;;;;;;;9.10;8.20;;;21.40;99.90;;;;;;2087279;28;20063;-69
2022/07/21 04:23:46;;;;;;;7.72;6.93;;;21.40;99.90;;;;;;2085321;28;20499;-69
2022/07/21 04:24:47;;;;;;;9.32;7.20;;;21.40;99.90;;;;;;2087164;28;20388;-69
2022/07/21 04:25:48;;;;;;;8.40;7.60;;;21.40;99.90;;;;;;2086306;28;20400;-69
2022/07/21 04:26:48;;;;;;;8.35;7.53;;;21.40;99.90;;;;;;2084219;28;20566;-69
2022/07/21 04:27:50;;;;;;;8.27;7.57;;;21.40;99.90;;;;;;2083886;28;20021;-69
2022/07/21 04:28:51;;;;;;;8.13;7.13;;;21.40;99.90;;;;;;2083364;28;20051;-69
2022/07/21 04:29:51;;;;;;;8.05;6.65;;;21.40;99.90;;;;;;2085173;28;20104;-69
2022/07/21 04:30:52;;;;;;;7.43;6.72;;;21.40;99.90;;;;;;2085385;28;20031;-69
2022/07/21 04:31:53;;;;;;;7.93;7.20;;;21.40;99.90;;;;;;2084163;28;20045;-69
2022/07/21 04:32:53;;;;;;;7.80;6.80;;;21.40;99.90;;;;;;2084736;28;20084;-69
2022/07/21 04:33:54;;;;;;;8.45;7.65;;;21.40;99.90;;;;;;2085493;28;20591;-69
2022/07/21 04:34:54;;;;;;;8.35;7.50;;;21.40;99.90;;;;;;2084215;28;20032;-69
2022/07/21 04:35:55;;;;;;;8.30;7.50;;;21.40;99.90;;;;;;2083593;28;20143;-69
2022/07/21 04:36:56;;;;;;;8.70;7.78;;;21.40;99.90;;;;;;2084625;28;20044;-69
2022/07/21 04:37:56;;;;;;;10.10;7.70;;;21.40;99.90;;;;;;2083026;28;20083;-69
2022/07/21 04:38:57;;;;;;;8.73;7.05;;;21.40;99.90;;;;;;2087721;28;20028;-69
2022/07/21 04:39:58;;;;;;;8.60;7.80;;;21.40;99.90;;;;;;2085973;28;20132;-69
2022/07/21 04:40:58;;;;;;;9.23;8.32;;;21.40;99.90;;;;;;2086029;28;20368;-69
2022/07/21 04:41:59;;;;;;;8.40;7.60;;;21.40;99.90;;;;;;2083657;28;20041;-69
2022/07/21 04:43:00;;;;;;;9.50;8.60;;;21.40;99.90;;;;;;2082538;28;20013;-69
2022/07/21 04:44:00;;;;;;;9.20;8.40;;;21.40;99.90;;;;;;2085169;28;20017;-69
2022/07/21 04:45:02;;;;;;;10.40;8.43;;;21.40;99.90;;;;;;2082524;28;20056;-69
2022/07/21 04:46:03;;;;;;;8.82;8.02;;;21.40;99.90;;;;;;2083914;28;20064;-69
2022/07/21 04:47:03;;;;;;;8.80;8.00;;;21.40;99.90;;;;;;2084529;28;20028;-69
2022/07/21 04:48:04;;;;;;;8.98;8.15;;;21.40;99.90;;;;;;2084696;28;20013;-70
2022/07/21 04:49:05;;;;;;;8.15;7.43;;;21.40;99.90;;;;;;2084648;28;20024;-70
2022/07/21 04:50:08;;;;;;;9.45;8.55;;;21.40;99.90;;;;;;2084850;28;20040;-69
2022/07/21 04:51:08;;;;;;;10.02;9.02;;;21.40;99.90;;;;;;2083035;28;20485;-69
2022/07/21 04:52:09;;;;;;;10.57;9.43;;;21.40;99.90;;;;;;2084276;28;20291;-69
2022/07/21 04:53:11;;;;;;;9.35;8.55;;;21.40;99.90;;;;;;2081802;28;20052;-69
2022/07/21 04:54:13;;;;;;;9.52;8.50;;;21.40;99.90;;;;;;2084618;28;20021;-69
2022/07/21 04:55:15;;;;;;;9.18;8.38;;;21.40;99.90;;;;;;2086468;28;20126;-69
2022/07/21 04:56:15;;;;;;;11.38;8.82;;;21.40;99.90;;;;;;2086782;28;20048;-69
2022/07/21 04:57:16;;;;;;;9.48;8.57;;;21.50;99.90;;;;;;2084845;28;20029;-70
2022/07/21 04:58:17;;;;;;;9.80;8.90;;;21.50;99.90;;;;;;2084661;28;20035;-69
2022/07/21 04:59:17;;;;;;;10.45;9.55;;;21.50;99.90;;;;;;2086521;28;20138;-69
2022/07/21 05:00:21;;;;;;;11.63;9.48;;;21.50;99.90;;;;;;2082005;28;20030;-70
2022/07/21 05:01:21;;;;;;;10.73;9.63;;;21.60;99.90;;;;;;2080895;28;20485;-69
2022/07/21 05:02:22;;;;;;;10.30;9.40;;;21.70;99.90;;;;;;2087511;28;20410;-69
2022/07/21 05:03:22;;;;;;;11.00;10.07;;;21.70;99.90;;;;;;2083975;28;20028;-69
2022/07/21 05:04:23;;;;;;;10.30;9.30;;;21.80;99.90;;;;;;2084361;28;20056;-69
2022/07/21 05:05:24;;;;;;;9.65;8.85;;;21.80;99.90;;;;;;2084913;28;20096;-69
2022/07/21 05:06:25;;;;;;;11.02;9.70;;;21.90;99.90;;;;;;2087213;28;20029;-70
2022/07/21 05:07:25;;;;;;;9.90;9.10;;;22.00;99.90;;;;;;2083155;28;20033;-69
2022/07/21 05:08:27;;;;;;;11.52;10.52;;;22.00;99.90;;;;;;2088033;28;20470;-70
2022/07/21 05:09:28;;;;;;;11.25;10.13;;;22.10;99.90;;;;;;2087256;28;20014;-70
2022/07/21 05:10:28;;;;;;;10.70;9.70;;;22.20;99.90;;;;;;2088457;28;20473;-69
2022/07/21 05:11:29;;;;;;;10.35;9.38;;;22.20;99.90;;;;;;2085608;28;20139;-69
2022/07/21 05:12:30;;;;;;;10.45;9.40;;;22.20;99.90;;;;;;2085267;28;20021;-69
2022/07/21 05:13:30;;;;;;;10.95;9.95;;;22.30;99.90;;;;;;2085223;28;20026;-69
2022/07/21 05:14:31;;;;;;;11.52;10.43;;;22.30;99.90;;;;;;2086048;28;20052;-70
2022/07/21 05:15:31;;;;;;;11.18;10.18;;;22.40;99.90;;;;;;2085630;28;20447;-69
2022/07/21 05:16:32;;;;;;;12.90;10.43;;;22.50;99.90;;;;;;2084172;28;20043;-69
2022/07/21 05:17:33;;;;;;;11.43;10.52;;;22.50;99.90;;;;;;2083816;28;20025;-69
2022/07/21 05:18:33;;;;;;;12.18;11.05;;;22.60;99.90;;;;;;2086999;28;20104;-69